createdAt,value
2023-02-04T00:00:33.447Z,4.24
2023-02-04T00:01:33.088Z,4.24
2023-02-04T00:02:33.115Z,4.26
2023-02-04T00:03:33.052Z,4.24
2023-02-04T00:04:33.063Z,4.30
2023-02-04T00:05:33.070Z,4.26
2023-02-04T00:06:33.020Z,4.20
2023-02-04T00:07:33.014Z,4.28
2023-02-04T00:08:33.009Z,4.24
2023-02-04T00:09:32.994Z,4.27
2023-02-04T00:10:33.392Z,4.27
2023-02-04T00:11:32.994Z,4.26
2023-02-04T00:12:32.973Z,4.20
2023-02-04T00:13:32.947Z,4.28
2023-02-04T00:14:32.947Z,4.26
2023-02-04T00:15:32.940Z,4.26
2023-02-04T00:16:32.938Z,4.21
2023-02-04T00:17:32.920Z,4.20
2023-02-04T00:18:32.904Z,4.10
2023-02-04T00:19:32.922Z,4.12
2023-02-04T00:20:33.129Z,4.18
2023-02-04T00:21:32.881Z,4.18
2023-02-04T00:22:32.859Z,4.08
2023-02-04T00:23:32.861Z,4.08
2023-02-04T00:24:32.832Z,4.10
2023-02-04T00:25:32.827Z,4.10
2023-02-04T00:26:32.834Z,4.21
2023-02-04T00:27:32.822Z,4.30
2023-02-04T00:28:32.795Z,4.18
2023-02-04T00:29:32.794Z,4.23
2023-02-04T00:30:33.051Z,4.18
2023-02-04T00:31:32.835Z,4.20
2023-02-04T00:32:32.775Z,4.20
2023-02-04T00:33:32.739Z,4.21
2023-02-04T00:34:32.744Z,4.12
2023-02-04T00:35:32.737Z,4.12
2023-02-04T00:36:32.712Z,4.13
2023-02-04T00:37:32.707Z,4.10
2023-02-04T00:38:32.698Z,4.12
2023-02-04T00:39:32.675Z,4.10
2023-02-04T00:40:33.041Z,4.13
2023-02-04T00:41:32.672Z,4.02
2023-02-04T00:42:32.653Z,4.16
2023-02-04T00:43:32.648Z,4.13
2023-02-04T00:44:32.648Z,4.13
2023-02-04T00:45:32.703Z,4.13
2023-02-04T00:46:32.609Z,4.16
2023-02-04T00:47:32.606Z,4.10
2023-02-04T00:48:32.621Z,4.09
2023-02-04T00:49:32.582Z,4.12
2023-02-04T00:50:32.926Z,4.23
2023-02-04T00:51:32.549Z,4.23
2023-02-04T00:52:32.545Z,4.18
2023-02-04T00:53:32.542Z,4.20
2023-02-04T00:54:32.531Z,4.20
2023-02-04T00:55:32.506Z,4.12
2023-02-04T00:56:32.507Z,4.13
2023-02-04T00:57:32.486Z,4.18
2023-02-04T00:58:32.494Z,4.10
2023-02-04T00:59:32.490Z,4.13
2023-02-04T01:00:32.875Z,3.98
2023-02-04T01:01:32.446Z,4.12
2023-02-04T01:02:32.504Z,4.12
2023-02-04T01:03:32.433Z,4.00
2023-02-04T01:04:32.455Z,3.99
2023-02-04T01:05:32.419Z,4.02
2023-02-04T01:06:32.443Z,3.98
2023-02-04T01:07:32.545Z,3.92
2023-02-04T01:08:32.386Z,3.96
2023-02-04T01:09:32.386Z,3.88
2023-02-04T01:10:32.776Z,3.76
2023-02-04T01:11:32.382Z,3.63
2023-02-04T01:12:32.346Z,3.51
2023-02-04T01:13:32.322Z,3.48
2023-02-04T01:14:32.322Z,3.42
2023-02-04T01:15:32.319Z,3.33
2023-02-04T01:16:32.404Z,3.25
2023-02-04T01:17:32.315Z,3.15
2023-02-04T01:18:32.273Z,3.12
2023-02-04T01:19:32.263Z,2.97
2023-02-04T01:20:32.517Z,3.11
2023-02-04T01:21:32.249Z,3.05
2023-02-04T01:22:32.248Z,2.99
2023-02-04T01:23:32.240Z,2.96
2023-02-04T01:24:32.218Z,3.00
2023-02-04T01:25:32.216Z,2.90
2023-02-04T01:26:32.193Z,2.96
2023-02-04T01:27:32.190Z,2.93
2023-02-04T01:28:32.181Z,2.94
2023-02-04T01:29:32.167Z,2.97
2023-02-04T01:30:32.505Z,2.91
2023-02-04T01:31:32.154Z,2.84
2023-02-04T01:32:32.143Z,2.86
2023-02-04T01:33:32.123Z,2.89
2023-02-04T01:34:32.117Z,2.78
2023-02-04T01:35:32.106Z,2.81
2023-02-04T01:36:32.160Z,2.79
2023-02-04T01:37:32.081Z,2.81
2023-02-04T01:38:32.066Z,2.87
2023-02-04T01:39:32.062Z,2.78
2023-02-04T01:40:32.446Z,2.84
2023-02-04T01:41:32.060Z,2.86
2023-02-04T01:42:32.046Z,2.78
2023-02-04T01:43:32.030Z,2.82
2023-02-04T01:44:32.015Z,2.89
2023-02-04T01:45:32.015Z,2.90
2023-02-04T01:46:32.012Z,2.89
2023-02-04T01:47:31.995Z,2.84
2023-02-04T01:48:31.976Z,2.94
2023-02-04T01:49:31.960Z,2.89
2023-02-04T01:50:32.369Z,3.00
2023-02-04T01:51:31.981Z,2.93
2023-02-04T01:52:31.962Z,2.99
2023-02-04T01:53:31.936Z,2.90
2023-02-04T01:54:31.908Z,2.99
2023-02-04T01:55:31.923Z,2.99
2023-02-04T01:56:31.885Z,2.94
2023-02-04T01:57:31.900Z,2.94
2023-02-04T01:58:31.880Z,2.89
2023-02-04T01:59:31.862Z,2.93
2023-02-04T02:00:32.317Z,2.91
2023-02-04T02:01:31.840Z,2.93
2023-02-04T02:02:31.930Z,2.81
2023-02-04T02:03:31.821Z,2.90
2023-02-04T02:04:31.808Z,2.81
2023-02-04T02:05:31.794Z,2.82
2023-02-04T02:06:31.791Z,2.84
2023-02-04T02:07:31.788Z,2.79
2023-02-04T02:08:31.788Z,2.79
2023-02-04T02:09:31.757Z,2.72
2023-02-04T02:10:32.204Z,2.75
2023-02-04T02:11:31.750Z,2.72
2023-02-04T02:12:31.760Z,2.68
2023-02-04T02:13:31.719Z,2.61
2023-02-04T02:14:31.698Z,2.61
2023-02-04T02:15:31.693Z,2.65
2023-02-04T02:16:31.761Z,2.57
2023-02-04T02:17:31.678Z,2.51
2023-02-04T02:18:31.682Z,2.57
2023-02-04T02:19:31.643Z,2.51
2023-02-04T02:20:31.987Z,2.42
2023-02-04T02:21:31.624Z,2.37
2023-02-04T02:22:31.621Z,2.39
2023-02-04T02:23:31.629Z,2.45
2023-02-04T02:24:31.624Z,2.40
2023-02-04T02:25:31.590Z,2.33
2023-02-04T02:26:31.586Z,2.21
2023-02-04T02:27:31.567Z,2.25
2023-02-04T02:28:31.567Z,2.17
2023-02-04T02:29:31.584Z,2.17
2023-02-04T02:30:31.899Z,2.22
2023-02-04T02:31:31.625Z,2.17
2023-02-04T02:32:31.511Z,2.10
2023-02-04T02:33:31.499Z,2.18
2023-02-04T02:34:31.509Z,2.10
2023-02-04T02:35:31.518Z,2.01
2023-02-04T02:36:31.474Z,1.99
2023-02-04T02:37:31.458Z,2.04
2023-02-04T02:38:31.455Z,2.03
2023-02-04T02:39:31.455Z,2.00
2023-02-04T02:40:31.922Z,1.97
2023-02-04T02:41:31.457Z,2.00
2023-02-04T02:42:31.424Z,1.99
2023-02-04T02:43:31.404Z,2.03
2023-02-04T02:44:31.395Z,2.03
2023-02-04T02:45:31.381Z,1.97
2023-02-04T02:46:31.441Z,1.97
2023-02-04T02:47:31.375Z,1.97
2023-02-04T02:48:31.353Z,1.93
2023-02-04T02:49:31.345Z,2.03
2023-02-04T02:50:31.720Z,1.97
2023-02-04T02:51:31.319Z,1.91
2023-02-04T02:52:31.312Z,1.78
2023-02-04T02:53:31.303Z,1.78
2023-02-04T02:54:31.310Z,1.81
2023-02-04T02:55:31.268Z,1.84
2023-02-04T02:56:31.289Z,1.78
2023-02-04T02:57:31.268Z,1.75
2023-02-04T02:58:31.244Z,1.74
2023-02-04T02:59:31.237Z,1.81
2023-02-04T03:00:31.585Z,1.82
2023-02-04T03:01:31.305Z,1.84
2023-02-04T03:02:31.295Z,1.99
2023-02-04T03:03:31.198Z,2.01
2023-02-04T03:04:31.178Z,2.00
2023-02-04T03:05:31.164Z,2.01
2023-02-04T03:06:31.172Z,2.00
2023-02-04T03:07:31.155Z,1.93
2023-02-04T03:08:31.172Z,1.97
2023-02-04T03:09:31.125Z,1.92
2023-02-04T03:10:31.520Z,2.03
2023-02-04T03:11:31.108Z,2.00
2023-02-04T03:12:31.115Z,1.95
2023-02-04T03:13:31.083Z,1.82
2023-02-04T03:14:31.089Z,1.91
2023-02-04T03:15:31.110Z,1.81
2023-02-04T03:16:31.069Z,1.99
2023-02-04T03:17:31.040Z,2.00
2023-02-04T03:18:31.049Z,1.92
2023-02-04T03:19:31.034Z,1.84
2023-02-04T03:20:31.380Z,1.77
2023-02-04T03:21:31.011Z,1.87
2023-02-04T03:22:31.002Z,1.95
2023-02-04T03:23:30.995Z,1.87
2023-02-04T03:24:30.988Z,1.77
2023-02-04T03:25:30.974Z,1.78
2023-02-04T03:26:30.965Z,1.78
2023-02-04T03:27:30.977Z,1.85
2023-02-04T03:28:30.961Z,1.81
2023-02-04T03:29:30.927Z,1.81
2023-02-04T03:30:31.219Z,1.77
2023-02-04T03:31:31.079Z,1.80
2023-02-04T03:32:30.899Z,1.77
2023-02-04T03:33:30.909Z,1.81
2023-02-04T03:34:30.878Z,1.71
2023-02-04T03:35:30.872Z,1.80
2023-02-04T03:36:30.873Z,1.77
2023-02-04T03:37:30.845Z,1.82
2023-02-04T03:38:30.846Z,1.84
2023-02-04T03:39:30.826Z,1.74
2023-02-04T03:40:31.069Z,1.71
2023-02-04T03:41:30.818Z,1.63
2023-02-04T03:42:30.811Z,1.78
2023-02-04T03:43:32.986Z,1.78
2023-02-04T03:44:30.799Z,1.73
2023-02-04T03:45:40.596Z,1.81
2023-02-04T03:46:31.815Z,1.80
2023-02-04T03:47:30.762Z,1.80
2023-02-04T03:48:30.757Z,1.85
2023-02-04T03:49:30.727Z,1.78
2023-02-04T03:50:31.091Z,1.84
2023-02-04T03:51:30.699Z,1.84
2023-02-04T03:52:30.715Z,1.81
2023-02-04T03:53:30.683Z,1.81
2023-02-04T03:54:30.682Z,1.84
2023-02-04T03:55:30.664Z,1.80
2023-02-04T03:56:30.646Z,1.87
2023-02-04T03:57:30.644Z,1.92
2023-02-04T03:58:30.661Z,1.92
2023-02-04T03:59:30.627Z,1.99
2023-02-04T04:00:30.931Z,1.82
2023-02-04T04:01:30.633Z,1.91
2023-02-04T04:02:30.613Z,1.92
2023-02-04T04:03:30.587Z,1.87
2023-02-04T04:04:30.581Z,1.99
2023-02-04T04:05:30.556Z,1.92
2023-02-04T04:06:30.558Z,1.97
2023-02-04T04:07:30.537Z,1.81
2023-02-04T04:08:30.526Z,1.80
2023-02-04T04:09:30.529Z,1.75
2023-02-04T04:10:31.006Z,1.77
2023-02-04T04:11:30.515Z,1.73
2023-02-04T04:12:30.484Z,1.67
2023-02-04T04:13:30.485Z,1.74
2023-02-04T04:14:30.475Z,1.73
2023-02-04T04:15:30.476Z,1.74
2023-02-04T04:16:30.461Z,1.75
2023-02-04T04:17:30.445Z,1.77
2023-02-04T04:18:30.422Z,1.77
2023-02-04T04:19:30.421Z,1.74
2023-02-04T04:20:30.901Z,1.66
2023-02-04T04:21:30.404Z,1.74
2023-02-04T04:22:30.389Z,1.62
2023-02-04T04:23:30.376Z,1.63
2023-02-04T04:24:30.370Z,1.64
2023-02-04T04:25:30.387Z,1.62
2023-02-04T04:26:30.338Z,1.59
2023-02-04T04:27:30.337Z,1.62
2023-02-04T04:28:30.332Z,1.55
2023-02-04T04:29:30.314Z,1.55
2023-02-04T04:30:30.844Z,1.66
2023-02-04T04:31:30.484Z,1.63
2023-02-04T04:32:30.320Z,1.57
2023-02-04T04:33:30.268Z,1.69
2023-02-04T04:34:30.253Z,1.74
2023-02-04T04:35:30.245Z,1.78
2023-02-04T04:36:30.230Z,1.69
2023-02-04T04:37:30.234Z,1.67
2023-02-04T04:38:30.217Z,1.74
2023-02-04T04:39:30.211Z,1.80
2023-02-04T04:40:30.628Z,1.80
2023-02-04T04:41:30.173Z,1.77
2023-02-04T04:42:30.175Z,1.77
2023-02-04T04:43:30.175Z,1.73
2023-02-04T04:44:30.145Z,1.69
2023-02-04T04:45:30.136Z,1.74
2023-02-04T04:46:30.191Z,1.69
2023-02-04T04:47:30.140Z,1.73
2023-02-04T04:48:30.172Z,1.71
2023-02-04T04:49:30.112Z,1.77
2023-02-04T04:50:30.509Z,1.74
2023-02-04T04:51:30.077Z,1.85
2023-02-04T04:52:30.064Z,1.84
2023-02-04T04:53:30.069Z,1.80
2023-02-04T04:54:30.047Z,1.78
2023-02-04T04:55:30.050Z,1.77
2023-02-04T04:56:30.019Z,1.78
2023-02-04T04:57:30.017Z,1.81
2023-02-04T04:58:30.008Z,1.80
2023-02-04T04:59:30.002Z,1.82
2023-02-04T05:00:30.378Z,1.78
2023-02-04T05:01:29.988Z,1.80
2023-02-04T05:02:29.962Z,1.82
2023-02-04T05:03:29.965Z,1.78
2023-02-04T05:04:30.048Z,1.77
2023-02-04T05:05:29.926Z,1.73
2023-02-04T05:06:29.934Z,1.71
2023-02-04T05:07:29.913Z,1.71
2023-02-04T05:08:29.916Z,1.67
2023-02-04T05:09:29.897Z,1.64
2023-02-04T05:10:30.459Z,1.59
2023-02-04T05:11:29.869Z,1.56
2023-02-04T05:12:29.887Z,1.64
2023-02-04T05:13:29.861Z,1.66
2023-02-04T05:14:29.845Z,1.69
2023-02-04T05:15:29.839Z,1.73
2023-02-04T05:16:29.862Z,1.60
2023-02-04T05:17:29.832Z,1.59
2023-02-04T05:18:29.815Z,1.60
2023-02-04T05:19:29.796Z,1.59
2023-02-04T05:20:30.343Z,1.59
2023-02-04T05:21:29.768Z,1.59
2023-02-04T05:22:29.767Z,1.46
2023-02-04T05:23:29.759Z,1.52
2023-02-04T05:24:29.761Z,1.57
2023-02-04T05:25:29.739Z,1.56
2023-02-04T05:26:31.148Z,1.52
2023-02-04T05:27:29.718Z,1.46
2023-02-04T05:28:29.706Z,1.45
2023-02-04T05:29:29.699Z,1.55
2023-02-04T05:30:29.958Z,1.49
2023-02-04T05:31:29.707Z,1.38
2023-02-04T05:32:29.673Z,1.35
2023-02-04T05:33:29.650Z,1.36
2023-02-04T05:34:29.661Z,1.31
2023-02-04T05:35:29.634Z,1.30
2023-02-04T05:36:29.669Z,1.30
2023-02-04T05:37:29.625Z,1.23
2023-02-04T05:38:29.594Z,1.21
2023-02-04T05:39:29.585Z,1.28
2023-02-04T05:40:29.845Z,1.28
2023-02-04T05:41:29.564Z,1.26
2023-02-04T05:42:29.550Z,1.26
2023-02-04T05:43:29.561Z,1.12
2023-02-04T05:44:29.527Z,1.24
2023-02-04T05:45:29.591Z,1.10
2023-02-04T05:46:29.515Z,1.08
2023-02-04T05:47:29.500Z,1.27
2023-02-04T05:48:29.494Z,1.23
2023-02-04T05:49:29.494Z,1.17
2023-02-04T05:50:29.775Z,1.18
2023-02-04T05:51:29.462Z,1.23
2023-02-04T05:52:29.470Z,1.23
2023-02-04T05:53:29.441Z,1.28
2023-02-04T05:54:29.440Z,1.23
2023-02-04T05:55:29.433Z,1.26
2023-02-04T05:56:29.426Z,1.21
2023-02-04T05:57:29.397Z,1.20
2023-02-04T05:58:29.383Z,1.23
2023-02-04T05:59:29.379Z,1.18
2023-02-04T06:00:29.539Z,1.21
2023-02-04T06:01:29.378Z,1.26
2023-02-04T06:02:29.355Z,1.26
2023-02-04T06:03:29.395Z,1.35
2023-02-04T06:04:29.337Z,1.30
2023-02-04T06:05:29.321Z,1.35
2023-02-04T06:06:29.307Z,1.28
2023-02-04T06:07:29.314Z,1.28
2023-02-04T06:08:29.307Z,1.26
2023-02-04T06:09:29.275Z,1.24
2023-02-04T06:10:29.596Z,1.24
2023-02-04T06:11:29.253Z,1.23
2023-02-04T06:12:29.239Z,1.23
2023-02-04T06:13:29.261Z,1.26
2023-02-04T06:14:29.214Z,1.30
2023-02-04T06:15:29.210Z,1.28
2023-02-04T06:16:29.239Z,1.21
2023-02-04T06:17:29.188Z,1.24
2023-02-04T06:18:29.195Z,1.26
2023-02-04T06:19:29.181Z,1.10
2023-02-04T06:20:29.153Z,1.10
2023-02-04T06:21:29.147Z,1.10
2023-02-04T06:22:29.154Z,1.08
2023-02-04T06:23:29.125Z,1.17
2023-02-04T06:24:29.149Z,1.12
2023-02-04T06:25:29.114Z,1.10
2023-02-04T06:26:29.097Z,1.16
2023-02-04T06:27:29.087Z,1.24
2023-02-04T06:28:29.094Z,1.18
2023-02-04T06:29:29.066Z,1.18
2023-02-04T06:30:29.089Z,1.08
2023-02-04T06:31:29.226Z,1.17
2023-02-04T06:32:29.028Z,1.12
2023-02-04T06:33:29.024Z,1.05
2023-02-04T06:34:29.023Z,1.05
2023-02-04T06:35:29.014Z,1.06
2023-02-04T06:36:28.986Z,1.02
2023-02-04T06:37:28.989Z,1.08
2023-02-04T06:38:28.967Z,1.18
2023-02-04T06:39:28.972Z,1.06
2023-02-04T06:40:29.045Z,1.08
2023-02-04T06:41:28.943Z,1.05
2023-02-04T06:42:28.933Z,1.05
2023-02-04T06:43:28.931Z,1.03
2023-02-04T06:44:28.926Z,1.03
2023-02-04T06:45:28.901Z,0.98
2023-02-04T06:46:28.904Z,0.84
2023-02-04T06:47:28.886Z,0.96
2023-02-04T06:48:30.956Z,1.08
2023-02-04T06:49:28.863Z,0.91
2023-02-04T06:50:28.894Z,1.00
2023-02-04T06:51:28.848Z,1.03
2023-02-04T06:52:28.826Z,0.90
2023-02-04T06:53:28.981Z,0.98
2023-02-04T06:54:28.803Z,0.91
2023-02-04T06:55:28.815Z,0.85
2023-02-04T06:56:28.809Z,0.91
2023-02-04T06:57:28.772Z,0.90
2023-02-04T06:58:28.766Z,0.96
2023-02-04T06:59:28.761Z,0.94
2023-02-04T07:00:28.745Z,0.98
2023-02-04T07:01:28.773Z,0.96
2023-02-04T07:02:28.725Z,0.98
2023-02-04T07:03:28.716Z,1.03
2023-02-04T07:04:28.707Z,0.98
2023-02-04T07:05:28.698Z,1.00
2023-02-04T07:06:28.687Z,1.09
2023-02-04T07:07:28.687Z,1.05
2023-02-04T07:08:28.664Z,1.05
2023-02-04T07:09:28.647Z,1.06
2023-02-04T07:10:28.654Z,1.05
2023-02-04T07:11:28.659Z,1.10
2023-02-04T07:12:28.644Z,1.06
2023-02-04T07:13:28.623Z,1.03
2023-02-04T07:14:28.603Z,1.10
2023-02-04T07:15:28.713Z,1.06
2023-02-04T07:16:28.580Z,0.99
2023-02-04T07:17:28.577Z,1.08
2023-02-04T07:18:28.557Z,1.17
2023-02-04T07:19:28.563Z,1.26
2023-02-04T07:20:28.544Z,1.30
2023-02-04T07:21:28.531Z,1.36
2023-02-04T07:22:28.538Z,1.23
2023-02-04T07:23:36.043Z,1.27
2023-02-04T07:24:36.035Z,1.20
2023-02-04T07:25:28.490Z,1.30
2023-02-04T07:26:28.471Z,1.23
2023-02-04T07:27:28.476Z,1.31
2023-02-04T07:28:28.488Z,1.34
2023-02-04T07:29:28.440Z,1.34
2023-02-04T07:30:28.457Z,1.36
2023-02-04T07:31:28.513Z,1.31
2023-02-04T07:32:28.410Z,1.35
2023-02-04T07:33:28.406Z,1.38
2023-02-04T07:34:28.405Z,1.44
2023-02-04T07:35:28.388Z,1.48
2023-02-04T07:36:28.408Z,1.48
2023-02-04T07:37:28.368Z,1.53
2023-02-04T07:38:28.353Z,1.55
2023-02-04T07:39:28.349Z,1.56
2023-02-04T07:40:28.332Z,1.64
2023-02-04T07:41:28.322Z,1.57
2023-02-04T07:42:28.299Z,1.56
2023-02-04T07:43:28.299Z,1.56
2023-02-04T07:44:28.310Z,1.63
2023-02-04T07:45:28.268Z,1.63
2023-02-04T07:46:28.358Z,1.66
2023-02-04T07:47:28.268Z,1.73
2023-02-04T07:48:28.247Z,1.75
2023-02-04T07:49:28.245Z,1.78
2023-02-04T07:50:28.250Z,1.78
2023-02-04T07:51:28.274Z,1.78
2023-02-04T07:52:28.208Z,1.87
2023-02-04T07:53:28.198Z,1.82
2023-02-04T07:54:28.178Z,1.92
2023-02-04T07:55:28.171Z,2.00
2023-02-04T07:56:28.150Z,1.97
2023-02-04T07:57:28.149Z,2.03
2023-02-04T07:58:28.168Z,2.01
2023-02-04T07:59:28.129Z,2.04
2023-02-04T08:00:28.212Z,2.03
2023-02-04T08:01:28.161Z,2.00
2023-02-04T08:02:28.119Z,2.04
2023-02-04T08:03:28.094Z,2.01
2023-02-04T08:04:28.075Z,2.11
2023-02-04T08:05:28.113Z,2.17
2023-02-04T08:06:28.052Z,2.18
2023-02-04T08:07:28.044Z,2.21
2023-02-04T08:08:28.035Z,2.15
2023-02-04T08:09:28.034Z,2.24
2023-02-04T08:10:28.182Z,2.28
2023-02-04T08:11:28.032Z,2.35
2023-02-04T08:12:27.987Z,2.39
2023-02-04T08:13:27.971Z,2.36
2023-02-04T08:14:27.977Z,2.40
2023-02-04T08:15:27.978Z,2.40
2023-02-04T08:16:28.009Z,2.43
2023-02-04T08:17:27.950Z,2.43
2023-02-04T08:18:27.930Z,2.51
2023-02-04T08:19:27.918Z,2.53
2023-02-04T08:20:27.924Z,2.55
2023-02-04T08:21:27.896Z,2.58
2023-02-04T08:22:27.908Z,2.60
2023-02-04T08:23:27.866Z,2.65
2023-02-04T08:24:27.876Z,2.66
2023-02-04T08:25:27.845Z,2.61
2023-02-04T08:26:27.837Z,2.71
2023-02-04T08:27:27.832Z,2.72
2023-02-04T08:28:27.824Z,2.66
2023-02-04T08:29:27.819Z,2.78
2023-02-04T08:30:27.803Z,2.82
2023-02-04T08:31:27.849Z,2.81
2023-02-04T08:32:27.793Z,2.86
2023-02-04T08:33:27.776Z,2.84
2023-02-04T08:34:27.751Z,2.91
2023-02-04T08:35:27.747Z,2.90
2023-02-04T08:36:27.752Z,3.07
2023-02-04T08:37:27.721Z,2.91
2023-02-04T08:38:27.745Z,3.02
2023-02-04T08:39:27.708Z,3.05
2023-02-04T08:40:27.691Z,2.94
2023-02-04T08:41:27.684Z,2.96
2023-02-04T08:42:27.679Z,2.96
2023-02-04T08:43:27.672Z,3.02
2023-02-04T08:44:27.668Z,2.93
2023-02-04T08:45:27.662Z,3.00
2023-02-04T08:46:27.744Z,2.99
2023-02-04T08:47:27.638Z,2.94
2023-02-04T08:48:27.645Z,2.93
2023-02-04T08:49:27.640Z,3.02
2023-02-04T08:50:27.607Z,3.07
2023-02-04T08:51:27.601Z,3.11
2023-02-04T08:52:27.590Z,3.14
2023-02-04T08:53:27.583Z,3.14
2023-02-04T08:54:27.579Z,3.14
2023-02-04T08:55:27.565Z,3.04
2023-02-04T08:56:27.549Z,3.11
2023-02-04T08:57:27.542Z,3.11
2023-02-04T08:58:27.537Z,2.99
2023-02-04T08:59:27.532Z,3.07
2023-02-04T09:00:27.524Z,3.09
2023-02-04T09:01:27.507Z,3.11
2023-02-04T09:02:27.555Z,3.04
2023-02-04T09:03:27.491Z,3.14
2023-02-04T09:04:27.489Z,3.17
2023-02-04T09:05:27.480Z,3.18
2023-02-04T09:06:27.463Z,3.15
2023-02-04T09:07:27.449Z,3.02
2023-02-04T09:08:27.453Z,3.20
2023-02-04T09:09:27.435Z,3.25
2023-02-04T09:10:27.423Z,3.33
2023-02-04T09:11:27.407Z,3.25
2023-02-04T09:12:27.403Z,3.25
2023-02-04T09:13:27.384Z,3.26
2023-02-04T09:14:27.381Z,3.33
2023-02-04T09:15:27.380Z,3.44
2023-02-04T09:16:27.439Z,3.44
2023-02-04T09:17:27.354Z,3.44
2023-02-04T09:18:27.348Z,3.46
2023-02-04T09:19:27.319Z,3.44
2023-02-04T09:20:27.328Z,3.45
2023-02-04T09:21:27.316Z,3.44
2023-02-04T09:22:27.294Z,3.37
2023-02-04T09:23:27.293Z,3.42
2023-02-04T09:24:27.273Z,3.49
2023-02-04T09:25:27.270Z,3.52
2023-02-04T09:26:27.246Z,3.74
2023-02-04T09:27:27.250Z,3.76
2023-02-04T09:28:27.236Z,3.74
2023-02-04T09:29:27.242Z,3.85
2023-02-04T09:30:27.211Z,3.80
2023-02-04T09:31:27.299Z,3.76
2023-02-04T09:32:27.209Z,3.78
2023-02-04T09:33:27.188Z,3.73
2023-02-04T09:34:27.192Z,3.70
2023-02-04T09:35:27.158Z,3.66
2023-02-04T09:36:27.165Z,3.59
2023-02-04T09:37:27.152Z,3.67
2023-02-04T09:38:27.146Z,3.62
2023-02-04T09:39:27.121Z,3.54
2023-02-04T09:40:27.103Z,3.59
2023-02-04T09:41:27.095Z,3.59
2023-02-04T09:42:27.095Z,3.56
2023-02-04T09:43:27.075Z,3.67
2023-02-04T09:44:27.087Z,3.67
2023-02-04T09:45:27.090Z,3.64
2023-02-04T09:46:27.050Z,3.62
2023-02-04T09:47:27.041Z,3.72
2023-02-04T09:48:27.030Z,3.73
2023-02-04T09:49:27.023Z,3.70
2023-02-04T09:50:27.011Z,3.67
2023-02-04T09:51:26.995Z,3.67
2023-02-04T09:52:27.000Z,3.73
2023-02-04T09:53:26.968Z,3.80
2023-02-04T09:54:26.989Z,3.81
2023-02-04T09:55:26.941Z,3.73
2023-02-04T09:56:26.939Z,3.78
2023-02-04T09:57:26.928Z,3.87
2023-02-04T09:58:26.906Z,3.82
2023-02-04T09:59:26.893Z,3.99
2023-02-04T10:00:26.903Z,4.06
2023-02-04T10:01:26.904Z,4.00
2023-02-04T10:02:34.422Z,3.92
2023-02-04T10:03:26.966Z,3.88
2023-02-04T10:04:26.863Z,3.82
2023-02-04T10:05:26.831Z,3.91
2023-02-04T10:06:26.814Z,4.02
2023-02-04T10:07:26.804Z,4.06
2023-02-04T10:08:26.819Z,4.00
2023-02-04T10:09:26.800Z,4.00
2023-02-04T10:10:26.789Z,4.09
2023-02-04T10:11:26.768Z,4.12
2023-02-04T10:12:26.754Z,4.05
2023-02-04T10:13:26.743Z,4.00
2023-02-04T10:14:26.734Z,4.16
2023-02-04T10:15:26.733Z,4.21
2023-02-04T10:16:26.777Z,4.20
2023-02-04T10:17:26.704Z,4.21
2023-02-04T10:18:26.683Z,4.36
2023-02-04T10:19:26.673Z,4.35
2023-02-04T10:20:26.688Z,4.36
2023-02-04T10:21:26.660Z,4.39
2023-02-04T10:22:26.638Z,4.34
2023-02-04T10:23:26.643Z,4.31
2023-02-04T10:24:26.705Z,4.42
2023-02-04T10:25:26.613Z,4.43
2023-02-04T10:26:26.617Z,4.56
2023-02-04T10:27:26.598Z,4.63
2023-02-04T10:28:26.623Z,4.53
2023-02-04T10:29:26.577Z,4.57
2023-02-04T10:30:26.625Z,4.71
2023-02-04T10:31:26.706Z,4.67
2023-02-04T10:32:26.544Z,4.72
2023-02-04T10:33:26.534Z,4.79
2023-02-04T10:34:26.541Z,4.71
2023-02-04T10:35:26.508Z,4.72
2023-02-04T10:36:26.498Z,4.71
2023-02-04T10:37:26.505Z,4.60
2023-02-04T10:38:26.485Z,4.69
2023-02-04T10:39:26.485Z,4.69
2023-02-04T10:40:26.480Z,4.71
2023-02-04T10:41:26.456Z,4.66
2023-02-04T10:42:26.437Z,4.79
2023-02-04T10:43:26.432Z,4.77
2023-02-04T10:44:26.435Z,4.83
2023-02-04T10:45:26.428Z,4.91
2023-02-04T10:46:26.480Z,4.94
2023-02-04T10:47:26.414Z,4.85
2023-02-04T10:48:26.394Z,4.88
2023-02-04T10:49:26.382Z,4.97
2023-02-04T10:50:26.380Z,5.04
2023-02-04T10:51:26.369Z,5.12
2023-02-04T10:52:26.350Z,5.16
2023-02-04T10:53:26.332Z,5.11
2023-02-04T10:54:26.369Z,4.98
2023-02-04T10:55:26.333Z,5.04
2023-02-04T10:56:26.319Z,5.12
2023-02-04T10:57:26.306Z,5.24
2023-02-04T10:58:26.301Z,5.21
2023-02-04T10:59:26.301Z,5.12
2023-02-04T11:00:26.280Z,5.15
2023-02-04T11:01:26.400Z,5.07
2023-02-04T11:02:26.274Z,4.93
2023-02-04T11:03:26.327Z,5.15
2023-02-04T11:04:26.221Z,5.18
2023-02-04T11:05:26.223Z,5.24
2023-02-04T11:06:26.208Z,5.25
2023-02-04T11:07:26.183Z,5.32
2023-02-04T11:08:26.242Z,5.30
2023-02-04T11:09:26.183Z,5.37
2023-02-04T11:10:26.164Z,5.51
2023-02-04T11:11:26.160Z,5.39
2023-02-04T11:12:26.160Z,5.43
2023-02-04T11:13:26.138Z,5.50
2023-02-04T11:14:26.135Z,5.40
2023-02-04T11:15:26.113Z,5.39
2023-02-04T11:16:26.216Z,5.36
2023-02-04T11:17:26.095Z,5.30
2023-02-04T11:18:26.116Z,5.33
2023-02-04T11:19:26.080Z,5.39
2023-02-04T11:20:26.067Z,5.51
2023-02-04T11:21:26.054Z,5.50
2023-02-04T11:22:26.061Z,5.52
2023-02-04T11:23:26.046Z,5.70
2023-02-04T11:24:26.027Z,5.88
2023-02-04T11:25:26.006Z,5.91
2023-02-04T11:26:25.989Z,5.94
2023-02-04T11:27:25.988Z,5.95
2023-02-04T11:28:25.995Z,5.77
2023-02-04T11:29:25.976Z,5.55
2023-02-04T11:30:25.947Z,5.48
2023-02-04T11:31:26.140Z,5.22
2023-02-04T11:32:25.929Z,5.22
2023-02-04T11:33:25.918Z,5.14
2023-02-04T11:34:25.906Z,4.96
2023-02-04T11:35:25.922Z,4.85
2023-02-04T11:36:25.889Z,4.75
2023-02-04T11:37:25.866Z,4.77
2023-02-04T11:38:25.864Z,4.85
2023-02-04T11:39:25.853Z,4.94
2023-02-04T11:40:25.853Z,4.94
2023-02-04T11:41:25.832Z,5.18
2023-02-04T11:42:25.819Z,5.15
2023-02-04T11:43:25.803Z,5.32
2023-02-04T11:44:25.815Z,5.43
2023-02-04T11:45:25.782Z,5.73
2023-02-04T11:46:25.830Z,5.75
2023-02-04T11:47:25.771Z,5.91
2023-02-04T11:48:25.751Z,5.88
2023-02-04T11:49:25.741Z,5.62
2023-02-04T11:50:25.723Z,5.44
2023-02-04T11:51:25.722Z,5.40
2023-02-04T11:52:25.733Z,5.33
2023-02-04T11:53:25.718Z,5.43
2023-02-04T11:54:25.688Z,5.39
2023-02-04T11:55:25.677Z,5.37
2023-02-04T11:56:25.668Z,5.43
2023-02-04T11:57:25.673Z,5.34
2023-02-04T11:58:25.650Z,5.19
2023-02-04T11:59:25.639Z,5.12
2023-02-04T12:00:25.660Z,5.09
2023-02-04T12:01:25.624Z,5.11
2023-02-04T12:02:25.712Z,5.03
2023-02-04T12:03:25.687Z,4.94
2023-02-04T12:04:25.617Z,5.14
2023-02-04T12:05:25.577Z,5.07
2023-02-04T12:06:25.559Z,5.24
2023-02-04T12:07:25.551Z,5.32
2023-02-04T12:08:25.556Z,5.40
2023-02-04T12:09:25.528Z,5.55
2023-02-04T12:10:25.547Z,5.61
2023-02-04T12:11:25.534Z,5.65
2023-02-04T12:12:25.512Z,5.52
2023-02-04T12:13:25.492Z,5.54
2023-02-04T12:14:25.478Z,5.50
2023-02-04T12:15:25.483Z,5.32
2023-02-04T12:16:25.590Z,5.19
2023-02-04T12:17:25.456Z,5.14
2023-02-04T12:18:25.432Z,5.06
2023-02-04T12:19:27.585Z,5.00
2023-02-04T12:20:25.413Z,4.96
2023-02-04T12:21:25.412Z,4.97
2023-02-04T12:22:25.394Z,4.98
2023-02-04T12:23:25.398Z,5.11
2023-02-04T12:24:25.368Z,5.21
2023-02-04T12:25:25.398Z,5.33
2023-02-04T12:26:25.366Z,5.32
2023-02-04T12:27:25.359Z,5.24
2023-02-04T12:28:25.345Z,5.21
2023-02-04T12:29:25.315Z,5.07
2023-02-04T12:30:25.312Z,5.07
2023-02-04T12:31:25.404Z,5.06
2023-02-04T12:32:25.298Z,5.09
2023-02-04T12:33:25.303Z,5.19
2023-02-04T12:34:25.260Z,5.19
2023-02-04T12:35:25.270Z,5.24
2023-02-04T12:36:25.242Z,5.43
2023-02-04T12:37:25.241Z,5.57
2023-02-04T12:38:25.225Z,5.54
2023-02-04T12:39:25.211Z,5.59
2023-02-04T12:40:25.194Z,5.55
2023-02-04T12:41:25.201Z,5.65
2023-02-04T12:42:25.178Z,5.50
2023-02-04T12:43:26.588Z,5.57
2023-02-04T12:44:25.165Z,5.44
2023-02-04T12:45:25.157Z,5.40
2023-02-04T12:46:25.220Z,5.51
2023-02-04T12:47:25.158Z,5.58
2023-02-04T12:48:25.158Z,5.59
2023-02-04T12:49:25.105Z,5.47
2023-02-04T12:50:25.097Z,5.43
2023-02-04T12:51:25.078Z,5.47
2023-02-04T12:52:25.086Z,5.44
2023-02-04T12:53:25.068Z,5.43
2023-02-04T12:54:25.057Z,5.44
2023-02-04T12:55:25.069Z,5.51
2023-02-04T12:56:25.033Z,5.50
2023-02-04T12:57:25.016Z,5.67
2023-02-04T12:58:25.011Z,5.73
2023-02-04T12:59:24.993Z,5.84
2023-02-04T13:00:25.037Z,5.90
2023-02-04T13:01:25.003Z,5.87
2023-02-04T13:02:24.972Z,5.97
2023-02-04T13:03:24.950Z,6.06
2023-02-04T13:04:24.970Z,5.94
2023-02-04T13:05:24.948Z,6.09
2023-02-04T13:06:24.920Z,6.09
2023-02-04T13:07:24.912Z,6.00
2023-02-04T13:08:24.908Z,5.85
2023-02-04T13:09:24.913Z,5.93
2023-02-04T13:10:24.893Z,5.91
2023-02-04T13:11:24.869Z,5.82
2023-02-04T13:12:24.860Z,5.77
2023-02-04T13:13:24.846Z,5.80
2023-02-04T13:14:24.848Z,5.79
2023-02-04T13:15:24.858Z,5.84
2023-02-04T13:16:24.858Z,5.77
2023-02-04T13:17:24.807Z,5.65
2023-02-04T13:18:24.800Z,5.51